Share

Alvin, WI

Argonne, WI (KWIARGON2) Elev 1594 ft | 45.65 °N, 88.86 °W | Change Station

Current weather conditions updated 18 seconds ago

Mostly Cloudy
Mostly Cloudy
39.6 °F
Feels Like 40 °F
N
1.0
Wind Variable Wind from NW
Gusts 7.0 mph
Sunrise 6:03 AM
Sunset 7:45 PM
Moon Waning Gibbous

Today is forecast to be Warmer than yesterday.

Pressure 30.40 in
Visibility 10.0 miles
Clouds Mostly Cloudy 3300 ft
Windchill 40 °F
Dew Point 27 °F
Humidity 61%
Rainfall 0.00 in
Snow Depth Not available.
UV 5 out of 16
Pollen 8.40 out of 12
Air Quality Not available.
Flu Activity Sporadic
METAR KIMT 181754Z AUTO 32011G15KT 10SM BKN033 03/M05 A3035 RMK AO2 SLP293 T00331050 10033 20000 50006

More Conditions Fewer Conditions

Pressure 30.40 in
Visibility 10.0 miles
Clouds Mostly Cloudy 3300 ft
Windchill 40 °F
Dew Point 27 °F
Humidity 61%
Rainfall 0.00 in
Snow Depth Not available.
UV 5 out of 16
Pollen 8.40 out of 12
Air Quality Not available.
Flu Activity Sporadic
METAR KIMT 181754Z AUTO 32011G15KT 10SM BKN033 03/M05 A3035 RMK AO2 SLP293 T00331050 10033 20000 50006

More Conditions Fewer Conditions

10-Day Weather Forecast

Almanac

Astronomy

Apr. 18, 2014 Rise Set
Actual Time 6:03 AM CDT 7:45 PM CDT
Civil Twilight 5:31 AM CDT 8:17 PM CDT
Nautical Twilight 4:53 AM CDT 8:55 PM CDT
Astronomical Twilight 4:11 AM CDT 9:37 PM CDT
Moon 11:38 PM CDT 8:18 AM CDT
Length of Visible Light 14h 45m
Length of Day
13h 42m
Tomorrow will be 3m 3s longer.
Waning Gibbous, 86% of the Moon is Illuminated
Today
Waning Gibbous
Apr 22
Last Quarter
Apr 29
New
May 6
First Quarter
May 14
Full

Today's Extremes

State Highs State Lows

Community

  • What's for Lunch?
    What's for Lunch?
  • SUNRISE THROUGH THE TREES.
    SUNRISE THROUGH THE TREES.
  • Dog Wood Blossoms
    Dog Wood Blossoms
  • Morning Light
    Morning Light
  • New Day
    New Day

WunderPhotos

Upload Photos

1,702,443 photos uploaded!

Nearby

Snow Depth

Station Depth Elevation
No new snow has been reported.

Coastal Water Temperatures

Place Temperature
No Stations Reporting

Earthquake Activity

City Distance Mag. Time & Date
No recent earthquake activity has been reported nearby.
Minimum magnitude displayed is 2.5.

Nearby Weather Stations

Station Location Temp. Windchill Dew Point Humidity Wind Precip. Elev Updated Type
Argonne, WI, Argonne, WI 39.6 °F 40 °F 27 °F 61% NW  at  1.0 mph 0.00 in / hr 1594 ft 1:11 PM CDT Normal
Three Lakes - Little Fork Lake, WI 38.4 °F 35 °F 27 °F 64% East  at  4.0 mph 0.08 in / hr 1627 ft 1:11 PM CDT Rapid Fire
Amasa Area, Crystal Falls, MI 43.3 °F 43 °F 28 °F 54% NW  at  0.7 mph 0.00 in / hr 1457 ft 1:00 PM CDT Normal
Spread Eagle Skies, Florence, WI 38.3 °F 38 °F 23 °F 54% NNW  at  2.7 mph 0.00 in / hr 1198 ft 1:11 PM CDT Rapid Fire

Show More Stations Show Fewer Stations

What do you think?

We're not finished. Please let us know what you like, what you don't like, and what you are still missing.